createdAt,value
2018-06-25T00:00:33.634Z,1.70
2018-06-25T00:03:02.716Z,1.75
2018-06-25T00:05:31.850Z,1.85
2018-06-25T00:08:00.946Z,2.15
2018-06-25T00:10:30.059Z,1.87
2018-06-25T00:12:59.190Z,1.90
2018-06-25T00:15:29.279Z,2.05
2018-06-25T00:17:58.398Z,2.45
2018-06-25T00:20:27.499Z,2.20
2018-06-25T00:22:56.614Z,2.00
2018-06-25T00:25:26.074Z,1.90
2018-06-25T00:27:54.958Z,1.90
2018-06-25T00:30:23.829Z,2.10
2018-06-25T00:32:52.693Z,2.47
2018-06-25T00:35:21.755Z,1.95
2018-06-25T00:37:50.750Z,1.90
2018-06-25T00:40:19.666Z,2.20
2018-06-25T00:42:48.586Z,2.05
2018-06-25T00:45:17.548Z,1.75
2018-06-25T00:47:46.462Z,2.47
2018-06-25T00:50:15.399Z,2.17
2018-06-25T00:52:43.990Z,1.87
2018-06-25T00:55:12.770Z,1.70
2018-06-25T00:57:41.650Z,1.82
2018-06-25T01:00:10.575Z,2.22
2018-06-25T01:02:39.450Z,1.77
2018-06-25T01:05:08.699Z,2.10
2018-06-25T01:07:37.593Z,1.75
2018-06-25T01:10:06.690Z,2.22
2018-06-25T01:12:35.553Z,1.95
2018-06-25T01:15:04.649Z,1.92
2018-06-25T01:17:33.553Z,1.70
2018-06-25T01:20:02.146Z,1.80
2018-06-25T01:22:30.942Z,1.80
2018-06-25T01:24:59.855Z,2.08
2018-06-25T01:27:28.728Z,2.08
2018-06-25T01:29:57.614Z,2.55
2018-06-25T01:32:26.483Z,1.98
2018-06-25T01:34:55.518Z,1.87
2018-06-25T01:37:24.391Z,1.95
2018-06-25T01:39:53.274Z,2.22
2018-06-25T01:42:22.157Z,2.00
2018-06-25T01:44:51.051Z,1.90
2018-06-25T01:47:20.028Z,2.40
2018-06-25T01:49:48.933Z,1.77
2018-06-25T01:52:17.826Z,2.35
2018-06-25T01:54:46.734Z,2.05
2018-06-25T01:57:15.630Z,2.27
2018-06-25T01:59:44.583Z,2.20
2018-06-25T02:02:13.500Z,1.67
2018-06-25T02:04:42.418Z,1.72
2018-06-25T02:07:11.302Z,1.70
2018-06-25T02:09:40.190Z,1.90
2018-06-25T02:12:09.054Z,2.00
2018-06-25T02:14:37.949Z,2.20
2018-06-25T02:17:06.850Z,2.22
2018-06-25T02:19:35.725Z,2.42
2018-06-25T02:22:04.646Z,2.70
2018-06-25T02:24:33.551Z,2.15
2018-06-25T02:27:02.430Z,2.35
2018-06-25T02:29:31.302Z,2.00
2018-06-25T02:32:00.191Z,2.08
2018-06-25T02:34:29.055Z,2.30
2018-06-25T02:36:57.959Z,2.27
2018-06-25T02:39:27.138Z,2.20
2018-06-25T02:41:56.029Z,2.33
2018-06-25T02:44:24.902Z,2.02
2018-06-25T02:46:53.818Z,1.75
2018-06-25T02:49:22.701Z,2.52
2018-06-25T02:51:51.582Z,2.20
2018-06-25T02:54:20.504Z,2.37
2018-06-25T02:56:49.165Z,2.62
2018-06-25T02:59:18.095Z,2.50
2018-06-25T03:01:46.918Z,2.60
2018-06-25T03:04:15.839Z,2.10
2018-06-25T03:06:45.019Z,2.30
2018-06-25T03:09:13.614Z,2.05
2018-06-25T03:11:42.430Z,2.17
2018-06-25T03:14:11.317Z,2.22
2018-06-25T03:16:40.279Z,2.33
2018-06-25T03:19:09.167Z,2.65
2018-06-25T03:21:38.090Z,2.77
2018-06-25T03:24:06.953Z,3.00
2018-06-25T03:26:35.866Z,2.67
2018-06-25T03:29:04.722Z,2.72
2018-06-25T03:31:33.896Z,2.47
2018-06-25T03:34:02.775Z,1.95
2018-06-25T03:36:31.706Z,2.30
2018-06-25T03:39:00.587Z,2.45
2018-06-25T03:41:29.470Z,2.35
2018-06-25T03:43:58.398Z,2.72
2018-06-25T03:46:27.283Z,2.15
2018-06-25T03:48:56.154Z,2.20
2018-06-25T03:51:25.058Z,2.47
2018-06-25T03:53:53.974Z,2.70
2018-06-25T03:56:22.849Z,1.98
2018-06-25T03:58:51.729Z,1.90
2018-06-25T04:01:20.631Z,2.72
2018-06-25T04:03:49.542Z,2.50
2018-06-25T04:06:18.458Z,2.25
2018-06-25T04:08:47.351Z,2.27
2018-06-25T04:11:16.255Z,2.50
2018-06-25T04:13:45.160Z,2.10
2018-06-25T04:16:14.072Z,2.37
2018-06-25T04:18:43.161Z,2.22
2018-06-25T04:21:12.035Z,2.55
2018-06-25T04:23:40.930Z,2.20
2018-06-25T04:26:09.789Z,2.12
2018-06-25T04:28:38.684Z,2.92
2018-06-25T04:31:07.583Z,2.58
2018-06-25T04:33:36.471Z,2.45
2018-06-25T04:36:05.682Z,2.25
2018-06-25T04:38:34.558Z,2.20
2018-06-25T04:41:03.447Z,3.85
2018-06-25T04:43:32.314Z,2.47
2018-06-25T04:46:01.206Z,2.35
2018-06-25T04:48:30.174Z,2.62
2018-06-25T04:50:59.067Z,2.45
2018-06-25T04:53:27.975Z,2.77
2018-06-25T04:55:56.937Z,2.67
2018-06-25T04:58:25.818Z,2.37
2018-06-25T05:00:54.842Z,2.35
2018-06-25T05:03:23.714Z,2.55
2018-06-25T05:05:52.622Z,2.75
2018-06-25T05:08:21.494Z,2.20
2018-06-25T05:10:50.375Z,2.72
2018-06-25T05:13:19.495Z,2.77
2018-06-25T05:15:48.378Z,2.45
2018-06-25T05:18:17.259Z,2.40
2018-06-25T05:20:46.164Z,2.95
2018-06-25T05:23:15.229Z,2.02
2018-06-25T05:25:45.518Z,2.65
2018-06-25T05:28:14.684Z,2.20
2018-06-25T05:30:43.274Z,2.40
2018-06-25T05:33:12.095Z,2.95
2018-06-25T05:35:40.994Z,2.30
2018-06-25T05:38:09.890Z,2.20
2018-06-25T05:40:38.764Z,2.05
2018-06-25T05:43:07.666Z,2.30
2018-06-25T05:45:36.529Z,2.40
2018-06-25T05:48:05.471Z,1.92
2018-06-25T05:50:34.371Z,2.25
2018-06-25T05:53:03.273Z,2.40
2018-06-25T05:55:32.150Z,1.90
2018-06-25T05:58:01.054Z,1.80
2018-06-25T06:00:29.929Z,2.15
2018-06-25T06:02:58.871Z,1.92
2018-06-25T06:05:27.747Z,1.90
2018-06-25T06:07:56.630Z,1.70
2018-06-25T06:10:26.594Z,1.80
2018-06-25T06:12:55.482Z,1.90
2018-06-25T06:15:24.382Z,1.52
2018-06-25T06:17:53.279Z,1.80
2018-06-25T06:20:22.135Z,1.47
2018-06-25T06:22:51.030Z,1.62
2018-06-25T06:25:19.941Z,2.05
2018-06-25T06:27:49.282Z,1.55
2018-06-25T06:30:18.222Z,1.57
2018-06-25T06:32:47.250Z,1.37
2018-06-25T06:35:16.299Z,1.65
2018-06-25T06:37:45.221Z,1.35
2018-06-25T06:40:14.206Z,1.00
2018-06-25T06:42:43.080Z,1.22
2018-06-25T06:45:11.984Z,1.05
2018-06-25T06:47:40.925Z,1.15
2018-06-25T06:50:09.811Z,1.30
2018-06-25T06:52:38.697Z,1.20
2018-06-25T06:55:07.578Z,1.15
2018-06-25T06:57:36.505Z,1.42
2018-06-25T07:00:05.610Z,1.32
2018-06-25T07:02:34.505Z,1.80
2018-06-25T07:05:03.106Z,1.20
2018-06-25T07:07:31.914Z,0.80
2018-06-25T07:10:00.814Z,0.80
2018-06-25T07:12:29.711Z,0.93
2018-06-25T07:14:58.589Z,1.10
2018-06-25T07:17:27.477Z,2.33
2018-06-25T07:19:56.342Z,1.32
2018-06-25T07:22:25.295Z,1.10
2018-06-25T07:24:54.199Z,1.20
2018-06-25T07:27:23.114Z,0.80
2018-06-25T07:29:52.192Z,1.10
2018-06-25T07:32:21.054Z,0.90
2018-06-25T07:34:49.969Z,1.10
2018-06-25T07:37:18.883Z,1.15
2018-06-25T07:39:47.790Z,0.80
2018-06-25T07:42:16.695Z,0.70
2018-06-25T07:44:45.916Z,0.80
2018-06-25T07:47:14.973Z,0.80
2018-06-25T07:49:43.722Z,0.93
2018-06-25T07:52:12.646Z,1.15
2018-06-25T07:54:41.559Z,0.98
2018-06-25T07:57:10.482Z,0.98
2018-06-25T07:59:39.363Z,1.30
2018-06-25T08:02:08.758Z,1.00
2018-06-25T08:04:37.658Z,0.95
2018-06-25T08:07:06.782Z,1.20
2018-06-25T08:09:35.666Z,1.15
2018-06-25T08:12:04.586Z,1.05
2018-06-25T08:14:33.519Z,1.10
2018-06-25T08:17:02.400Z,1.15
2018-06-25T08:19:31.371Z,1.10
2018-06-25T08:22:00.725Z,1.00
2018-06-25T08:24:29.618Z,0.90
2018-06-25T08:26:58.563Z,1.07
2018-06-25T08:29:27.502Z,0.80
2018-06-25T08:31:56.490Z,0.75
2018-06-25T08:34:25.666Z,0.90
2018-06-25T08:36:54.515Z,1.10
2018-06-25T08:39:23.387Z,0.90
2018-06-25T08:41:52.274Z,0.70
2018-06-25T08:44:21.190Z,0.90
2018-06-25T08:46:50.119Z,0.68
2018-06-25T08:49:19.034Z,0.68
2018-06-25T08:51:48.021Z,0.70
2018-06-25T08:54:16.891Z,0.60
2018-06-25T08:56:45.822Z,0.60
2018-06-25T08:59:14.705Z,0.65
2018-06-25T09:01:43.601Z,0.70
2018-06-25T09:04:12.643Z,0.82
2018-06-25T09:06:41.225Z,0.70
2018-06-25T09:09:11.460Z,0.80
2018-06-25T09:11:40.294Z,0.78
2018-06-25T09:14:09.355Z,0.80
2018-06-25T09:16:38.270Z,0.70
2018-06-25T09:19:07.578Z,0.70
2018-06-25T09:21:36.463Z,0.78
2018-06-25T09:24:05.589Z,0.70
2018-06-25T09:26:38.718Z,0.80
2018-06-25T09:29:07.634Z,0.90
2018-06-25T09:31:36.589Z,0.50
2018-06-25T09:34:10.703Z,0.65
2018-06-25T09:36:40.330Z,0.70
2018-06-25T09:39:11.190Z,0.93
2018-06-25T09:41:40.276Z,1.00
2018-06-25T09:44:10.050Z,0.70
2018-06-25T09:46:39.018Z,0.70
2018-06-25T09:49:07.990Z,0.55
2018-06-25T09:51:36.882Z,0.62
2018-06-25T09:54:06.071Z,0.80
2018-06-25T09:56:35.007Z,0.60
2018-06-25T09:59:03.926Z,0.62
2018-06-25T10:01:32.794Z,0.70
2018-06-25T10:04:01.696Z,0.50
2018-06-25T10:06:30.606Z,0.98
2018-06-25T10:08:59.490Z,0.50
2018-06-25T10:11:28.386Z,0.60
2018-06-25T10:13:57.269Z,0.80
2018-06-25T10:16:26.152Z,0.72
2018-06-25T10:18:55.069Z,0.90
2018-06-25T10:21:23.988Z,0.98
2018-06-25T10:23:52.873Z,0.60
2018-06-25T10:26:21.757Z,0.60
2018-06-25T10:28:50.666Z,0.50
2018-06-25T10:31:19.574Z,0.50
2018-06-25T10:33:48.512Z,0.57
2018-06-25T10:36:17.579Z,0.60
2018-06-25T10:38:47.559Z,0.70
2018-06-25T10:41:16.504Z,0.70
2018-06-25T10:43:45.406Z,0.60
2018-06-25T10:46:14.326Z,0.60
2018-06-25T10:48:43.234Z,0.60
2018-06-25T10:51:12.143Z,0.53
2018-06-25T10:53:41.041Z,0.60
2018-06-25T10:56:09.934Z,0.80
2018-06-25T10:58:38.842Z,0.75
2018-06-25T11:01:07.811Z,0.60
2018-06-25T11:03:36.674Z,0.70
2018-06-25T11:06:07.831Z,0.80
2018-06-25T11:08:37.670Z,0.60
2018-06-25T11:11:06.598Z,0.78
2018-06-25T11:13:35.510Z,0.63
2018-06-25T11:16:04.774Z,0.60
2018-06-25T11:18:33.694Z,0.80
2018-06-25T11:21:02.586Z,0.60
2018-06-25T11:23:31.479Z,0.63
2018-06-25T11:26:00.358Z,0.60
2018-06-25T11:28:29.255Z,0.60
2018-06-25T11:30:58.174Z,0.50
2018-06-25T11:33:27.050Z,0.60
2018-06-25T11:35:55.935Z,0.77
2018-06-25T11:38:24.822Z,0.65
2018-06-25T11:40:53.710Z,0.60
2018-06-25T11:43:22.593Z,0.70
2018-06-25T11:45:51.731Z,0.60
2018-06-25T11:48:20.610Z,0.50
2018-06-25T11:50:49.557Z,0.50
2018-06-25T11:53:18.489Z,0.78
2018-06-25T11:55:47.131Z,0.90
2018-06-25T11:58:16.141Z,0.80
2018-06-25T12:00:45.040Z,0.97
2018-06-25T12:03:14.049Z,0.60
2018-06-25T12:05:42.844Z,0.80
2018-06-25T12:08:11.706Z,0.70
2018-06-25T12:10:40.662Z,0.80
2018-06-25T12:13:09.459Z,0.70
2018-06-25T12:15:38.338Z,1.00
2018-06-25T12:18:07.252Z,0.70
2018-06-25T12:20:36.164Z,0.70
2018-06-25T12:23:05.375Z,0.60
2018-06-25T12:25:33.925Z,0.70
2018-06-25T12:28:02.714Z,0.60
2018-06-25T12:30:31.587Z,0.93
2018-06-25T12:33:00.498Z,0.70
2018-06-25T12:35:29.414Z,0.87
2018-06-25T12:37:58.318Z,0.70
2018-06-25T12:40:27.241Z,0.50
2018-06-25T12:42:56.526Z,1.10
2018-06-25T12:45:25.402Z,0.70
2018-06-25T12:47:54.397Z,0.80
2018-06-25T12:50:23.290Z,0.73
2018-06-25T12:52:52.238Z,0.90
2018-06-25T12:55:21.125Z,0.73
2018-06-25T12:57:50.031Z,0.90
2018-06-25T13:00:19.038Z,0.90
2018-06-25T13:02:47.994Z,0.80
2018-06-25T13:05:17.094Z,1.10
2018-06-25T13:07:46.002Z,0.80
2018-06-25T13:10:14.930Z,0.73
2018-06-25T13:12:43.829Z,0.90
2018-06-25T13:15:12.798Z,0.80
2018-06-25T13:17:41.742Z,1.00
2018-06-25T13:20:10.651Z,1.03
2018-06-25T13:22:39.536Z,0.93
2018-06-25T13:25:08.149Z,0.90
2018-06-25T13:27:36.966Z,1.50
2018-06-25T13:30:05.941Z,0.97
2018-06-25T13:32:35.016Z,1.10
2018-06-25T13:35:03.982Z,1.10
2018-06-25T13:37:32.903Z,0.90
2018-06-25T13:40:01.813Z,0.83
2018-06-25T13:42:30.714Z,1.00
2018-06-25T13:44:59.646Z,0.80
2018-06-25T13:47:28.549Z,0.90
2018-06-25T13:49:57.466Z,1.00
2018-06-25T13:52:26.453Z,1.13
2018-06-25T13:54:55.361Z,0.80
2018-06-25T13:57:24.247Z,1.00
2018-06-25T13:59:53.170Z,0.90
2018-06-25T14:02:22.062Z,1.10
2018-06-25T14:04:51.030Z,0.97
2018-06-25T14:07:19.918Z,0.90
2018-06-25T14:09:48.927Z,2.07
2018-06-25T14:12:17.979Z,1.33
2018-06-25T14:14:46.913Z,1.87
2018-06-25T14:17:16.001Z,1.17
2018-06-25T14:19:44.940Z,1.93
2018-06-25T14:22:13.866Z,1.13
2018-06-25T14:24:48.053Z,1.93
2018-06-25T14:27:17.299Z,1.30
2018-06-25T14:29:46.295Z,1.20
2018-06-25T14:32:20.734Z,1.33
2018-06-25T14:34:54.595Z,1.00
2018-06-25T14:37:23.383Z,0.80
2018-06-25T14:39:52.245Z,1.10
2018-06-25T14:42:21.150Z,1.27
2018-06-25T14:44:49.825Z,1.17
2018-06-25T14:47:18.647Z,1.10
2018-06-25T14:49:52.737Z,1.33
2018-06-25T14:52:21.696Z,1.67
2018-06-25T14:54:50.575Z,1.10
2018-06-25T14:57:19.481Z,1.10
2018-06-25T14:59:48.430Z,1.23
2018-06-25T15:02:17.350Z,1.30
2018-06-25T15:04:46.267Z,1.10
2018-06-25T15:07:15.204Z,1.20
2018-06-25T15:09:44.118Z,1.20
2018-06-25T15:12:13.025Z,1.20
2018-06-25T15:14:41.935Z,1.20
2018-06-25T15:17:10.846Z,1.37
2018-06-25T15:19:39.702Z,1.13
2018-06-25T15:22:08.595Z,1.30
2018-06-25T15:24:37.473Z,1.30
2018-06-25T15:27:06.379Z,0.90
2018-06-25T15:29:35.250Z,1.33
2018-06-25T15:32:04.155Z,1.67
2018-06-25T15:34:33.064Z,1.50
2018-06-25T15:37:01.973Z,1.10
2018-06-25T15:39:30.865Z,1.27
2018-06-25T15:41:59.793Z,1.10
2018-06-25T15:44:28.679Z,1.50
2018-06-25T15:46:57.558Z,2.00
2018-06-25T15:49:26.425Z,1.40
2018-06-25T15:51:55.368Z,1.10
2018-06-25T15:54:24.329Z,1.37
2018-06-25T15:56:53.217Z,1.33
2018-06-25T15:59:22.085Z,1.60
2018-06-25T16:01:50.978Z,1.17
2018-06-25T16:04:19.885Z,1.53
2018-06-25T16:06:48.889Z,1.23
2018-06-25T16:09:17.747Z,1.00
2018-06-25T16:11:46.776Z,1.30
2018-06-25T16:14:16.551Z,1.10
2018-06-25T16:16:45.454Z,1.00
2018-06-25T16:19:14.430Z,1.67
2018-06-25T16:21:43.337Z,1.63
2018-06-25T16:24:12.254Z,1.00
2018-06-25T16:26:42.107Z,1.40
2018-06-25T16:29:11.037Z,1.53
2018-06-25T16:31:39.920Z,1.20
2018-06-25T16:34:08.922Z,1.13
2018-06-25T16:36:37.839Z,1.50
2018-06-25T16:39:10.366Z,1.07
2018-06-25T16:41:39.339Z,1.37
2018-06-25T16:44:08.330Z,1.30
2018-06-25T16:46:37.687Z,1.30
2018-06-25T16:49:07.087Z,1.50
2018-06-25T16:51:36.015Z,1.30
2018-06-25T16:54:05.043Z,1.47
2018-06-25T16:56:33.938Z,1.27
2018-06-25T16:59:02.828Z,1.47
2018-06-25T17:01:31.735Z,1.20
2018-06-25T17:04:00.602Z,1.77
2018-06-25T17:06:29.515Z,1.27
2018-06-25T17:08:58.377Z,1.20
2018-06-25T17:11:27.292Z,1.57
2018-06-25T17:13:56.169Z,1.30
2018-06-25T17:16:25.105Z,1.47
2018-06-25T17:18:53.978Z,1.47
2018-06-25T17:21:22.884Z,1.33
2018-06-25T17:23:51.771Z,0.97
2018-06-25T17:26:20.669Z,1.13
2018-06-25T17:28:49.574Z,1.40
2018-06-25T17:31:18.501Z,1.40
2018-06-25T17:33:47.422Z,1.30
2018-06-25T17:36:16.398Z,1.43
2018-06-25T17:38:45.316Z,1.10
2018-06-25T17:41:14.241Z,1.60
2018-06-25T17:43:45.970Z,1.33
2018-06-25T17:46:14.906Z,1.30
2018-06-25T17:48:44.011Z,1.50
2018-06-25T17:51:13.007Z,1.23
2018-06-25T17:53:41.894Z,1.30
2018-06-25T17:56:10.833Z,1.37
2018-06-25T17:58:39.718Z,1.60
2018-06-25T18:01:08.610Z,1.60
2018-06-25T18:03:50.178Z,1.23
2018-06-25T18:06:20.067Z,1.57
2018-06-25T18:08:49.040Z,1.27
2018-06-25T18:11:17.945Z,2.30
2018-06-25T18:13:46.906Z,1.70
2018-06-25T18:16:15.930Z,1.57
2018-06-25T18:18:44.950Z,1.57
2018-06-25T18:21:13.903Z,1.70
2018-06-25T18:23:42.943Z,1.40
2018-06-25T18:26:11.855Z,1.40
2018-06-25T18:28:40.862Z,1.50
2018-06-25T18:31:09.746Z,1.87
2018-06-25T18:33:38.760Z,1.83
2018-06-25T18:36:07.643Z,1.45
2018-06-25T18:38:36.583Z,1.90
2018-06-25T18:41:05.563Z,1.60
2018-06-25T18:43:34.631Z,2.67
2018-06-25T18:46:04.197Z,1.80
2018-06-25T18:48:33.294Z,1.75
2018-06-25T18:51:02.194Z,2.17
2018-06-25T18:53:38.284Z,1.30
2018-06-25T18:56:07.424Z,1.72
2018-06-25T18:58:38.733Z,2.10
2018-06-25T19:01:08.060Z,1.92
2018-06-25T19:03:37.063Z,1.77
2018-06-25T19:06:06.034Z,1.90
2018-06-25T19:08:34.937Z,1.92
2018-06-25T19:11:03.854Z,4.47
2018-06-25T19:13:32.750Z,2.20
2018-06-25T19:16:01.719Z,1.92
2018-06-25T19:18:30.674Z,2.10
2018-06-25T19:20:59.615Z,1.72
2018-06-25T19:23:28.690Z,1.67
2018-06-25T19:25:57.625Z,1.95
2018-06-25T19:28:26.631Z,1.82
2018-06-25T19:30:55.592Z,2.02
2018-06-25T19:33:24.599Z,1.80
2018-06-25T19:35:53.590Z,1.70
2018-06-25T19:38:23.563Z,2.45
2018-06-25T19:40:52.442Z,2.20
2018-06-25T19:43:21.610Z,2.02
2018-06-25T19:45:50.559Z,2.02
2018-06-25T19:48:19.602Z,1.90
2018-06-25T19:50:48.590Z,2.75
2018-06-25T19:53:17.519Z,5.15
2018-06-25T19:55:46.442Z,3.22
2018-06-25T19:58:16.634Z,2.27
2018-06-25T20:00:45.677Z,2.20
2018-06-25T20:03:14.635Z,2.12
2018-06-25T20:05:43.688Z,2.10
2018-06-25T20:08:12.640Z,2.58
2018-06-25T20:10:41.537Z,2.08
2018-06-25T20:13:10.465Z,2.47
2018-06-25T20:15:39.457Z,2.65
2018-06-25T20:18:08.380Z,1.80
2018-06-25T20:20:37.275Z,2.10
2018-06-25T20:23:06.222Z,2.30
2018-06-25T20:25:35.182Z,2.05
2018-06-25T20:28:04.143Z,2.80
2018-06-25T20:30:33.102Z,2.30
2018-06-25T20:33:01.696Z,2.60
2018-06-25T20:35:30.756Z,2.33
2018-06-25T20:37:59.651Z,1.90
2018-06-25T20:40:28.571Z,2.10
2018-06-25T20:42:57.637Z,2.30
2018-06-25T20:45:26.550Z,2.20
2018-06-25T20:47:55.448Z,2.47
2018-06-25T20:50:24.366Z,2.42
2018-06-25T20:52:53.282Z,2.12
2018-06-25T20:55:22.246Z,2.22
2018-06-25T20:57:51.182Z,2.60
2018-06-25T21:00:20.097Z,2.40
2018-06-25T21:02:49.132Z,2.30
2018-06-25T21:05:18.410Z,2.05
2018-06-25T21:07:47.830Z,2.10
2018-06-25T21:10:16.856Z,2.45
2018-06-25T21:12:45.839Z,2.50
2018-06-25T21:15:14.835Z,2.12
2018-06-25T21:17:44.031Z,2.33
2018-06-25T21:20:13.119Z,2.20
2018-06-25T21:22:42.012Z,2.20
2018-06-25T21:25:11.278Z,2.47
2018-06-25T21:27:40.265Z,2.60
2018-06-25T21:30:10.746Z,2.10
2018-06-25T21:32:40.115Z,2.15
2018-06-25T21:35:11.359Z,2.05
2018-06-25T21:37:41.226Z,2.80
2018-06-25T21:40:10.294Z,3.35
2018-06-25T21:42:39.256Z,1.82
2018-06-25T21:45:08.247Z,1.98
2018-06-25T21:47:37.177Z,2.52
2018-06-25T21:50:06.103Z,2.00
2018-06-25T21:52:35.004Z,2.45
2018-06-25T21:55:03.935Z,1.80
2018-06-25T21:57:38.030Z,2.70
2018-06-25T22:00:17.363Z,2.20
2018-06-25T22:02:46.306Z,2.05
2018-06-25T22:05:14.918Z,2.22
2018-06-25T22:07:44.244Z,2.05
2018-06-25T22:10:13.175Z,2.50
2018-06-25T22:12:42.111Z,1.95
2018-06-25T22:15:11.063Z,2.30
2018-06-25T22:17:50.677Z,1.98
2018-06-25T22:20:20.133Z,2.20
2018-06-25T22:22:49.177Z,2.52
2018-06-25T22:25:18.111Z,2.10
2018-06-25T22:27:47.126Z,2.60
2018-06-25T22:30:16.026Z,2.60
2018-06-25T22:32:44.932Z,2.33
2018-06-25T22:35:13.538Z,2.45
2018-06-25T22:37:42.484Z,2.20
2018-06-25T22:40:11.636Z,2.20
2018-06-25T22:42:42.742Z,2.02
2018-06-25T22:45:11.770Z,2.83
2018-06-25T22:47:40.782Z,2.15
2018-06-25T22:50:09.701Z,1.98
2018-06-25T22:52:38.638Z,2.30
2018-06-25T22:55:07.889Z,2.52
2018-06-25T22:57:36.771Z,2.75
2018-06-25T23:00:06.223Z,2.20
2018-06-25T23:02:35.107Z,2.70
2018-06-25T23:05:04.081Z,2.08
2018-06-25T23:07:32.962Z,2.00
2018-06-25T23:10:01.567Z,2.22
2018-06-25T23:12:30.350Z,2.60
2018-06-25T23:14:59.214Z,1.52
2018-06-25T23:17:28.117Z,1.80
2018-06-25T23:19:56.994Z,1.90
2018-06-25T23:22:25.897Z,1.80
2018-06-25T23:24:54.806Z,1.67
2018-06-25T23:27:23.698Z,1.90
2018-06-25T23:29:52.570Z,2.40
2018-06-25T23:32:21.527Z,2.10
2018-06-25T23:34:50.418Z,1.80
2018-06-25T23:37:19.343Z,2.08
2018-06-25T23:39:48.244Z,2.20
2018-06-25T23:42:17.173Z,2.00
2018-06-25T23:44:46.089Z,2.40
2018-06-25T23:47:15.052Z,1.60
2018-06-25T23:49:43.978Z,1.72
2018-06-25T23:52:12.853Z,1.60
2018-06-25T23:54:41.798Z,2.17
2018-06-25T23:57:10.689Z,1.92
2018-06-25T23:59:39.566Z,1.90
